Sunday, December 16, 2018, 5:29 AM EST
Back to Local

KFVE, Northern Aroostook Regional

Location: Saint Agatha, ME, United States Lat: 47.283
Local Time: 5:29 AM EST (10:29 GMT) Lon: -68.3
Time Zone: US/Eastern Elev: 987 ft

Show me the last for .
Show Coded

Time T Td Feel RH Dir Speed Gust Alt SLP Vis Weather Sky Remarks
2018-12-16 04:53 30 22 23 71 340° 7 - 30.19 30.21 10 BKN016 None
2018-12-16 03:53 30 22 22 71 320° 8 - 30.20 30.22 10 BKN017 None
2018-12-16 03:35 30 22 18 71 330° 10 20 30.18 - 10 BKN017 None
2018-12-16 03:06 29 22 23 74 350° 6 - 30.18 - 10 SCT019 None
2018-12-16 02:53 30 22 21 71 340° 10 - 30.18 30.21 10 BKN020 None
2018-12-16 01:53 29 22 23 74 320° 6 - 30.21 30.24 10 BKN021 None
2018-12-16 00:53 28 23 19 81 280° 10 - 30.21 30.23 10 SCT022 6-hr Min Temp (1am): 28.0°F
6-hr Max Temp (1am): 35.1°F
2018-12-15 23:53 30 23 25 74 300° 5 - 30.18 30.21 10 CLR 24-hr Min Temp (12am): 30.0°F
24-hr Max Temp (12am): 37.9°F
2018-12-15 22:53 31 24 26 75 260° 5 - 30.18 30.20 10 CLR None
2018-12-15 21:53 31 24 26 75 290° 5 - 30.17 30.19 10 CLR None
2018-12-15 20:53 32 23 24 68 280° 9 - 30.16 30.19 10 CLR None
2018-12-15 19:53 35 24 27 63 300° 10 - 30.16 30.19 10 SCT040 None
2018-12-15 18:53 35 24 27 63 300° 12 - 30.16 30.19 10 OVC040 6-hr Min Temp (7pm): 35.1°F
6-hr Max Temp (7pm): 37.9°F
2018-12-15 17:53 36 23 29 58 310° 9 - 30.13 30.16 10 OVC038 None
2018-12-15 16:53 36 25 28 63 290° 13 - 30.12 30.14 10 FEW033 OVC042 None
2018-12-15 15:53 36 26 28 66 300° 12 - 30.09 30.11 10 OVC044 None
2018-12-15 14:53 37 26 29 64 290° 13 - 30.05 30.08 10 BKN030 OVC034 None
2018-12-15 14:25 38 27 31 64 310° 10 - 30.04 - 10 BKN030 BKN039 OVC048 None
2018-12-15 13:53 37 27 29 66 310° 13 - 30.02 30.05 10 BKN029 OVC035 None
2018-12-15 13:23 37 27 26 66 290° 16 22 30.01 - 10 SCT022 BKN027 BKN034 None
2018-12-15 12:53 37 28 29 69 270° 13 - 30.00 30.03 10 FEW030 OVC042 6-hr Min Temp (1pm): 34.0°F
6-hr Max Temp (1pm): 37.0°F
2018-12-15 11:53 36 28 28 72 280° 13 - 29.99 30.01 10 SCT032 OVC049 None
2018-12-15 10:53 36 29 29 75 270° 9 - 29.98 30.01 10 OVC048 None
2018-12-15 09:53 35 29 27 78 260° 10 - 29.99 30.01 10 OVC044 None
2018-12-15 08:53 35 30 28 81 260° 9 - 29.96 29.99 10 OVC039 None
2018-12-15 07:53 35 30 29 81 260° 8 - 29.95 29.98 10 FEW020 OVC044 None
2018-12-15 06:53 34 30 28 85 250° 7 - 29.92 29.94 10 FEW010 OVC035 1-hr Precip Total: Trace
6-hr Precip Total (7am): 0.00"
24-hr Precip Total (7am): 0.01"
6-hr Min Temp (7am): 30.9°F
6-hr Max Temp (7am): 34.0°F
2018-12-15 06:19 33 29 30 84 200° 3 - 29.91 - 6 BR FEW008 OVC014 None
2018-12-15 06:06 33 29 30 84 140° 3 - 29.91 - 6 BR BKN010 OVC015 None
2018-12-15 05:53 34 30 - 85 - Calm - 29.91 29.94 9 BKN009 OVC015 None

Support USWX by starting your Amazon purchase here.